createdAt,value
2022-10-11T00:00:05.684Z,0.17
2022-10-11T00:01:05.734Z,0.12
2022-10-11T00:02:05.662Z,0.10
2022-10-11T00:03:05.670Z,0.27
2022-10-11T00:04:05.641Z,0.02
2022-10-11T00:05:05.631Z,0.12
2022-10-11T00:06:06.122Z,0.10
2022-10-11T00:07:05.622Z,0.02
2022-10-11T00:08:05.583Z,0.02
2022-10-11T00:09:05.575Z,0.02
2022-10-11T00:10:05.541Z,0.10
2022-10-11T00:11:05.550Z,0.12
2022-10-11T00:12:05.547Z,0.27
2022-10-11T00:13:05.531Z,0.10
2022-10-11T00:14:05.533Z,0.00
2022-10-11T00:15:05.491Z,0.02
2022-10-11T00:16:05.834Z,0.10
2022-10-11T00:17:05.520Z,0.10
2022-10-11T00:18:05.639Z,0.02
2022-10-11T00:19:05.437Z,0.10
2022-10-11T00:20:05.431Z,0.02
2022-10-11T00:21:05.405Z,0.25
2022-10-11T00:22:05.387Z,0.10
2022-10-11T00:23:05.386Z,0.12
2022-10-11T00:24:05.391Z,0.00
2022-10-11T00:25:05.358Z,0.15
2022-10-11T00:26:05.571Z,0.02
2022-10-11T00:27:05.326Z,0.10
2022-10-11T00:28:05.323Z,0.17
2022-10-11T00:29:05.335Z,0.12
2022-10-11T00:30:05.324Z,0.20
2022-10-11T00:31:05.737Z,0.10
2022-10-11T00:32:05.297Z,0.00
2022-10-11T00:33:05.265Z,0.12
2022-10-11T00:34:05.275Z,0.10
2022-10-11T00:35:05.226Z,0.10
2022-10-11T00:36:05.503Z,0.00
2022-10-11T00:37:05.211Z,0.02
2022-10-11T00:38:05.181Z,0.10
2022-10-11T00:39:05.183Z,0.00
2022-10-11T00:40:05.209Z,0.10
2022-10-11T00:41:05.141Z,0.00
2022-10-11T00:42:05.140Z,0.00
2022-10-11T00:43:05.132Z,0.02
2022-10-11T00:44:05.182Z,0.12
2022-10-11T00:45:05.092Z,0.02
2022-10-11T00:46:05.369Z,0.00
2022-10-11T00:47:05.098Z,0.12
2022-10-11T00:48:05.050Z,0.10
2022-10-11T00:49:05.050Z,0.10
2022-10-11T00:50:05.042Z,0.10
2022-10-11T00:51:05.376Z,0.20
2022-10-11T00:52:05.005Z,0.02
2022-10-11T00:53:04.989Z,0.25
2022-10-11T00:54:05.009Z,0.02
2022-10-11T00:55:04.997Z,0.02
2022-10-11T00:56:05.164Z,0.00
2022-10-11T00:57:04.937Z,0.10
2022-10-11T00:58:04.918Z,0.12
2022-10-11T00:59:04.907Z,0.10
2022-10-11T01:00:04.935Z,0.10
2022-10-11T01:01:04.951Z,0.02
2022-10-11T01:02:04.867Z,0.10
2022-10-11T01:03:04.867Z,0.10
2022-10-11T01:04:04.849Z,0.00
2022-10-11T01:05:27.571Z,0.12
2022-10-11T01:06:06.275Z,0.10
2022-10-11T01:07:04.856Z,0.12
2022-10-11T01:08:04.805Z,0.12
2022-10-11T01:09:04.894Z,0.05
2022-10-11T01:10:04.779Z,0.10
2022-10-11T01:11:04.755Z,0.00
2022-10-11T01:12:04.734Z,0.22
2022-10-11T01:13:04.793Z,0.10
2022-10-11T01:14:04.714Z,0.07
2022-10-11T01:15:04.712Z,0.02
2022-10-11T01:16:05.006Z,0.02
2022-10-11T01:17:04.720Z,0.00
2022-10-11T01:18:04.665Z,0.02
2022-10-11T01:19:04.691Z,0.10
2022-10-11T01:20:04.672Z,0.00
2022-10-11T01:21:04.636Z,0.12
2022-10-11T01:22:04.611Z,0.00
2022-10-11T01:23:04.591Z,0.00
2022-10-11T01:24:08.344Z,0.12
2022-10-11T01:25:04.580Z,0.27
2022-10-11T01:26:04.829Z,0.10
2022-10-11T01:27:04.595Z,0.00
2022-10-11T01:28:04.529Z,0.10
2022-10-11T01:29:04.520Z,0.12
2022-10-11T01:30:04.528Z,0.00
2022-10-11T01:31:04.509Z,0.10
2022-10-11T01:32:04.500Z,0.22
2022-10-11T01:33:04.498Z,0.00
2022-10-11T01:34:04.458Z,0.10
2022-10-11T01:35:04.462Z,0.12
2022-10-11T01:36:04.700Z,0.02
2022-10-11T01:37:04.448Z,0.07
2022-10-11T01:38:04.406Z,0.10
2022-10-11T01:39:04.407Z,0.12
2022-10-11T01:40:04.417Z,0.00
2022-10-11T01:41:04.436Z,0.10
2022-10-11T01:42:04.346Z,0.10
2022-10-11T01:43:04.374Z,0.00
2022-10-11T01:44:04.343Z,0.00
2022-10-11T01:45:04.358Z,0.10
2022-10-11T01:46:04.674Z,0.00
2022-10-11T01:47:04.346Z,0.07
2022-10-11T01:48:04.285Z,0.17
2022-10-11T01:49:04.280Z,0.10
2022-10-11T01:50:04.273Z,0.00
2022-10-11T01:51:04.242Z,0.12
2022-10-11T01:52:04.224Z,0.10
2022-10-11T01:53:04.223Z,0.00
2022-10-11T01:54:04.193Z,0.10
2022-10-11T01:55:09.518Z,0.00
2022-10-11T01:56:05.513Z,0.02
2022-10-11T01:57:04.250Z,0.10
2022-10-11T01:58:04.156Z,0.02
2022-10-11T01:59:04.140Z,0.10
2022-10-11T02:00:04.131Z,0.02
2022-10-11T02:01:04.164Z,0.02
2022-10-11T02:02:04.113Z,0.12
2022-10-11T02:03:04.093Z,0.10
2022-10-11T02:04:04.068Z,0.00
2022-10-11T02:05:04.060Z,0.02
2022-10-11T02:06:04.423Z,0.02
2022-10-11T02:07:04.038Z,0.00
2022-10-11T02:08:04.032Z,0.02
2022-10-11T02:09:07.925Z,0.02
2022-10-11T02:10:03.989Z,0.00
2022-10-11T02:11:03.980Z,0.10
2022-10-11T02:12:03.976Z,0.12
2022-10-11T02:13:03.968Z,0.25
2022-10-11T02:14:03.938Z,0.02
2022-10-11T02:15:03.926Z,0.00
2022-10-11T02:16:04.324Z,0.10
2022-10-11T02:17:03.916Z,0.10
2022-10-11T02:18:03.887Z,0.05
2022-10-11T02:19:03.877Z,0.27
2022-10-11T02:20:03.888Z,0.02
2022-10-11T02:21:03.878Z,0.00
2022-10-11T02:22:03.834Z,0.00
2022-10-11T02:23:03.824Z,0.02
2022-10-11T02:24:03.825Z,0.20
2022-10-11T02:25:03.861Z,0.27
2022-10-11T02:26:04.138Z,0.00
2022-10-11T02:27:03.776Z,0.05
2022-10-11T02:28:03.772Z,0.02
2022-10-11T02:29:03.767Z,0.10
2022-10-11T02:30:03.733Z,0.00
2022-10-11T02:31:03.714Z,0.10
2022-10-11T02:32:03.702Z,0.05
2022-10-11T02:33:03.726Z,0.10
2022-10-11T02:34:03.682Z,0.10
2022-10-11T02:35:03.701Z,0.00
2022-10-11T02:36:03.976Z,0.10
2022-10-11T02:37:03.652Z,0.10
2022-10-11T02:38:03.642Z,0.02
2022-10-11T02:39:03.631Z,0.00
2022-10-11T02:40:03.616Z,0.00
2022-10-11T02:41:03.631Z,0.10
2022-10-11T02:42:03.569Z,0.10
2022-10-11T02:43:03.581Z,0.10
2022-10-11T02:44:03.572Z,0.10
2022-10-11T02:45:03.547Z,0.00
2022-10-11T02:46:04.022Z,0.00
2022-10-11T02:47:03.528Z,0.10
2022-10-11T02:48:03.533Z,0.02
2022-10-11T02:49:03.555Z,0.10
2022-10-11T02:50:03.598Z,0.10
2022-10-11T02:51:03.564Z,0.10
2022-10-11T02:52:03.457Z,0.10
2022-10-11T02:53:03.469Z,0.02
2022-10-11T02:54:03.450Z,0.00
2022-10-11T02:55:03.407Z,0.12
2022-10-11T02:56:03.833Z,0.00
2022-10-11T02:57:03.391Z,0.25
2022-10-11T02:58:03.397Z,0.10
2022-10-11T02:59:03.377Z,0.10
2022-10-11T03:00:03.418Z,0.10
2022-10-11T03:01:03.336Z,0.02
2022-10-11T03:02:03.405Z,0.02
2022-10-11T03:03:03.323Z,0.00
2022-10-11T03:04:03.358Z,0.02
2022-10-11T03:05:03.283Z,0.10
2022-10-11T03:06:03.657Z,0.10
2022-10-11T03:07:03.283Z,0.05
2022-10-11T03:08:03.268Z,0.02
2022-10-11T03:09:03.241Z,0.02
2022-10-11T03:10:03.233Z,0.00
2022-10-11T03:11:03.211Z,0.00
2022-10-11T03:12:03.224Z,0.00
2022-10-11T03:13:03.171Z,0.05
2022-10-11T03:14:03.200Z,0.10
2022-10-11T03:15:03.160Z,0.02
2022-10-11T03:16:03.882Z,0.02
2022-10-11T03:17:23.677Z,0.02
2022-10-11T03:18:04.122Z,0.10
2022-10-11T03:19:03.100Z,0.25
2022-10-11T03:20:03.103Z,0.00
2022-10-11T03:21:03.105Z,0.00
2022-10-11T03:22:03.069Z,0.17
2022-10-11T03:23:03.039Z,0.07
2022-10-11T03:24:03.141Z,0.00
2022-10-11T03:25:04.600Z,0.15
2022-10-11T03:26:03.452Z,0.00
2022-10-11T03:27:03.008Z,0.10
2022-10-11T03:28:03.012Z,0.17
2022-10-11T03:29:02.986Z,0.10
2022-10-11T03:30:02.976Z,0.02
2022-10-11T03:31:02.964Z,0.00
2022-10-11T03:32:02.948Z,0.10
2022-10-11T03:33:02.916Z,0.00
2022-10-11T03:34:02.928Z,0.00
2022-10-11T03:35:02.894Z,0.00
2022-10-11T03:36:03.290Z,0.10
2022-10-11T03:37:02.885Z,0.02
2022-10-11T03:38:02.875Z,0.10
2022-10-11T03:39:02.853Z,0.10
2022-10-11T03:40:02.824Z,0.12
2022-10-11T03:41:02.823Z,0.15
2022-10-11T03:42:02.814Z,0.10
2022-10-11T03:43:02.821Z,0.10
2022-10-11T03:44:02.777Z,0.00
2022-10-11T03:45:02.773Z,0.15
2022-10-11T03:46:03.178Z,0.10
2022-10-11T03:47:02.745Z,0.12
2022-10-11T03:48:02.764Z,0.10
2022-10-11T03:49:02.723Z,0.00
2022-10-11T03:50:02.721Z,0.10
2022-10-11T03:51:02.702Z,0.00
2022-10-11T03:52:02.691Z,0.02
2022-10-11T03:53:02.671Z,0.00
2022-10-11T03:54:02.652Z,0.02
2022-10-11T03:55:02.649Z,0.02
2022-10-11T03:56:08.097Z,0.10
2022-10-11T03:57:03.612Z,0.05
2022-10-11T03:58:02.600Z,0.15
2022-10-11T03:59:02.608Z,0.15
2022-10-11T04:00:02.568Z,0.00
2022-10-11T04:01:02.580Z,0.02
2022-10-11T04:02:02.617Z,0.10
2022-10-11T04:03:02.549Z,0.10
2022-10-11T04:04:02.537Z,0.22
2022-10-11T04:05:02.516Z,0.15
2022-10-11T04:06:03.019Z,0.12
2022-10-11T04:07:02.488Z,0.10
2022-10-11T04:08:02.476Z,0.00
2022-10-11T04:09:02.471Z,0.00
2022-10-11T04:10:02.469Z,0.10
2022-10-11T04:11:02.445Z,0.10
2022-10-11T04:12:02.435Z,0.10
2022-10-11T04:13:02.405Z,0.22
2022-10-11T04:14:02.395Z,0.07
2022-10-11T04:15:02.372Z,0.00
2022-10-11T04:16:02.734Z,0.10
2022-10-11T04:17:02.400Z,0.10
2022-10-11T04:18:02.359Z,0.10
2022-10-11T04:19:02.334Z,0.10
2022-10-11T04:20:02.384Z,0.10
2022-10-11T04:21:02.344Z,0.02
2022-10-11T04:22:02.312Z,0.00
2022-10-11T04:23:02.283Z,0.02
2022-10-11T04:24:02.262Z,0.07
2022-10-11T04:25:02.262Z,0.07
2022-10-11T04:26:02.654Z,0.20
2022-10-11T04:27:02.234Z,0.00
2022-10-11T04:28:02.233Z,0.10
2022-10-11T04:29:02.194Z,0.25
2022-10-11T04:30:02.200Z,0.10
2022-10-11T04:31:02.172Z,0.10
2022-10-11T04:32:02.149Z,0.00
2022-10-11T04:33:02.148Z,0.07
2022-10-11T04:34:02.155Z,0.27
2022-10-11T04:35:03.381Z,0.00
2022-10-11T04:36:02.472Z,0.00
2022-10-11T04:37:02.098Z,0.10
2022-10-11T04:38:02.089Z,0.00
2022-10-11T04:39:02.096Z,0.12
2022-10-11T04:40:02.071Z,0.00
2022-10-11T04:41:02.056Z,0.10
2022-10-11T04:42:02.039Z,0.07
2022-10-11T04:43:02.036Z,0.10
2022-10-11T04:44:02.017Z,0.07
2022-10-11T04:45:01.986Z,0.00
2022-10-11T04:46:01.986Z,0.00
2022-10-11T04:47:01.971Z,0.10
2022-10-11T04:48:01.945Z,0.07
2022-10-11T04:49:01.946Z,0.00
2022-10-11T04:50:01.948Z,0.10
2022-10-11T04:51:01.927Z,0.17
2022-10-11T04:52:01.894Z,0.22
2022-10-11T04:53:02.084Z,0.00
2022-10-11T04:54:01.953Z,0.15
2022-10-11T04:55:01.858Z,0.02
2022-10-11T04:56:02.250Z,0.12
2022-10-11T04:57:01.857Z,0.02
2022-10-11T04:58:01.828Z,0.17
2022-10-11T04:59:01.823Z,0.07
2022-10-11T05:00:01.828Z,0.15
2022-10-11T05:01:01.791Z,0.15
2022-10-11T05:02:01.808Z,0.30
2022-10-11T05:03:01.751Z,0.20
2022-10-11T05:04:01.768Z,0.10
2022-10-11T05:05:01.752Z,0.25
2022-10-11T05:06:05.483Z,0.17
2022-10-11T05:07:01.720Z,0.20
2022-10-11T05:08:01.708Z,0.37
2022-10-11T05:09:01.714Z,0.32
2022-10-11T05:10:01.711Z,0.32
2022-10-11T05:11:01.732Z,0.54
2022-10-11T05:12:01.716Z,0.62
2022-10-11T05:13:01.643Z,0.64
2022-10-11T05:14:01.659Z,0.84
2022-10-11T05:15:01.651Z,0.94
2022-10-11T05:16:01.985Z,1.21
2022-10-11T05:17:01.577Z,1.46
2022-10-11T05:18:01.559Z,1.68
2022-10-11T05:19:01.541Z,1.90
2022-10-11T05:20:01.654Z,2.27
2022-10-11T05:21:01.520Z,2.79
2022-10-11T05:22:01.509Z,3.19
2022-10-11T05:23:01.486Z,3.68
2022-10-11T05:24:01.486Z,4.17
2022-10-11T05:25:01.459Z,4.74
2022-10-11T05:26:01.737Z,5.38
2022-10-11T05:27:03.479Z,6.15
2022-10-11T05:28:01.445Z,7.09
2022-10-11T05:29:01.488Z,8.10
2022-10-11T05:30:01.407Z,8.82
2022-10-11T05:31:01.385Z,9.41
2022-10-11T05:32:01.385Z,9.66
2022-10-11T05:33:01.367Z,10.23
2022-10-11T05:34:01.345Z,10.52
2022-10-11T05:35:01.357Z,10.89
2022-10-11T05:36:01.468Z,11.26
2022-10-11T05:37:01.302Z,11.31
2022-10-11T05:38:01.333Z,11.34
2022-10-11T05:39:01.282Z,11.39
2022-10-11T05:40:01.284Z,11.49
2022-10-11T05:41:01.273Z,11.36
2022-10-11T05:42:01.262Z,11.36
2022-10-11T05:43:01.235Z,11.39
2022-10-11T05:44:01.236Z,11.46
2022-10-11T05:45:01.232Z,11.49
2022-10-11T05:46:01.256Z,11.54
2022-10-11T05:47:01.179Z,11.49
2022-10-11T05:48:01.170Z,11.51
2022-10-11T05:49:01.156Z,11.54
2022-10-11T05:50:01.171Z,11.63
2022-10-11T05:51:01.119Z,11.41
2022-10-11T05:52:01.128Z,11.41
2022-10-11T05:53:01.097Z,11.71
2022-10-11T05:54:01.099Z,11.61
2022-10-11T05:55:01.065Z,11.71
2022-10-11T05:56:01.091Z,12.82
2022-10-11T05:57:01.056Z,13.19
2022-10-11T05:58:01.046Z,13.56
2022-10-11T05:59:02.515Z,13.76
2022-10-11T06:00:01.052Z,13.88
2022-10-11T06:01:01.012Z,13.88
2022-10-11T06:02:00.987Z,13.76
2022-10-11T06:03:00.976Z,13.91
2022-10-11T06:04:00.989Z,13.83
2022-10-11T06:05:00.936Z,13.86
2022-10-11T06:06:01.006Z,13.73
2022-10-11T06:07:00.925Z,13.78
2022-10-11T06:08:00.913Z,13.83
2022-10-11T06:09:00.894Z,13.83
2022-10-11T06:10:00.894Z,13.86
2022-10-11T06:11:00.860Z,13.86
2022-10-11T06:12:00.884Z,13.86
2022-10-11T06:13:00.835Z,14.05
2022-10-11T06:14:00.822Z,13.86
2022-10-11T06:15:00.811Z,13.91
2022-10-11T06:16:00.803Z,13.66
2022-10-11T06:17:00.793Z,13.76
2022-10-11T06:18:00.773Z,14.01
2022-10-11T06:19:00.770Z,13.91
2022-10-11T06:20:00.752Z,13.96
2022-10-11T06:21:00.750Z,13.78
2022-10-11T06:22:00.720Z,13.83
2022-10-11T06:23:00.701Z,13.96
2022-10-11T06:24:01.666Z,13.88
2022-10-11T06:25:00.720Z,13.91
2022-10-11T06:26:00.719Z,13.76
2022-10-11T06:27:00.700Z,13.93
2022-10-11T06:28:00.659Z,13.98
2022-10-11T06:29:00.669Z,13.81
2022-10-11T06:30:00.617Z,13.93
2022-10-11T06:31:00.598Z,13.83
2022-10-11T06:32:00.591Z,14.23
2022-10-11T06:33:04.672Z,13.73
2022-10-11T06:34:00.583Z,13.81
2022-10-11T06:35:00.561Z,13.93
2022-10-11T06:36:00.548Z,13.71
2022-10-11T06:37:00.538Z,13.91
2022-10-11T06:38:00.515Z,14.01
2022-10-11T06:39:00.503Z,13.83
2022-10-11T06:40:00.517Z,13.88
2022-10-11T06:41:00.486Z,13.91
2022-10-11T06:42:00.464Z,13.56
2022-10-11T06:43:00.488Z,14.01
2022-10-11T06:44:00.446Z,13.66
2022-10-11T06:45:00.416Z,14.08
2022-10-11T06:46:00.443Z,14.01
2022-10-11T06:47:00.391Z,13.81
2022-10-11T06:48:00.393Z,13.93
2022-10-11T06:49:00.393Z,14.05
2022-10-11T06:50:00.356Z,13.81
2022-10-11T06:51:00.829Z,14.10
2022-10-11T06:52:00.343Z,13.98
2022-10-11T06:53:00.323Z,14.01
2022-10-11T06:54:00.355Z,13.98
2022-10-11T06:55:00.288Z,14.20
2022-10-11T06:56:00.314Z,14.18
2022-10-11T06:57:00.281Z,14.03
2022-10-11T06:58:00.251Z,14.15
2022-10-11T06:59:00.259Z,14.13
2022-10-11T07:00:00.219Z,13.96
2022-10-11T07:01:00.290Z,14.10
2022-10-11T07:02:00.211Z,13.86
2022-10-11T07:03:00.199Z,14.01
2022-10-11T07:04:00.216Z,14.18
2022-10-11T07:05:00.169Z,13.91
2022-10-11T07:06:02.423Z,13.81
2022-10-11T07:07:00.151Z,13.83
2022-10-11T07:08:00.137Z,13.93
2022-10-11T07:09:00.111Z,14.03
2022-10-11T07:10:00.107Z,14.01
2022-10-11T07:11:00.084Z,13.81
2022-10-11T07:12:00.133Z,14.05
2022-10-11T07:13:00.103Z,14.18
2022-10-11T07:14:00.064Z,14.05
2022-10-11T07:15:00.035Z,13.93
2022-10-11T07:16:00.040Z,14.33
2022-10-11T07:17:00.011Z,14.08
2022-10-11T07:18:00.066Z,13.98
2022-10-11T07:19:00.887Z,13.88
2022-10-11T07:19:59.972Z,13.68
2022-10-11T07:20:59.960Z,14.03
2022-10-11T07:21:59.934Z,13.76
2022-10-11T07:22:59.971Z,13.78
2022-10-11T07:23:59.911Z,14.05
2022-10-11T07:24:59.905Z,14.15
2022-10-11T07:25:59.922Z,13.91
2022-10-11T07:26:59.884Z,13.98
2022-10-11T07:27:59.873Z,14.15
2022-10-11T07:28:59.923Z,14.05
2022-10-11T07:29:59.841Z,14.10
2022-10-11T07:30:59.831Z,13.81
2022-10-11T07:31:59.822Z,14.18
2022-10-11T07:32:59.801Z,13.81
2022-10-11T07:33:59.799Z,14.20
2022-10-11T07:34:59.780Z,13.59
2022-10-11T07:35:59.758Z,13.91
2022-10-11T07:36:59.773Z,14.01
2022-10-11T07:37:59.741Z,14.35
2022-10-11T07:38:59.730Z,14.20
2022-10-11T07:39:59.700Z,13.63
2022-10-11T07:40:59.717Z,13.88
2022-10-11T07:41:59.698Z,14.25
2022-10-11T07:42:59.688Z,13.76
2022-10-11T07:43:59.688Z,14.13
2022-10-11T07:44:59.648Z,13.56
2022-10-11T07:45:59.672Z,13.83
2022-10-11T07:46:59.625Z,13.91
2022-10-11T07:47:59.617Z,14.01
2022-10-11T07:48:59.590Z,13.88
2022-10-11T07:49:59.587Z,14.13
2022-10-11T07:50:59.576Z,13.83
2022-10-11T07:51:59.545Z,14.23
2022-10-11T07:52:59.562Z,14.05
2022-10-11T07:54:02.336Z,13.59
2022-10-11T07:55:00.534Z,14.01
2022-10-11T07:55:59.514Z,14.15
2022-10-11T07:56:59.495Z,14.15
2022-10-11T07:57:59.466Z,13.88
2022-10-11T07:58:59.482Z,14.08
2022-10-11T07:59:59.454Z,14.25
2022-10-11T08:00:59.514Z,14.15
2022-10-11T08:01:59.542Z,13.86
2022-10-11T08:02:59.425Z,14.18
2022-10-11T08:03:59.404Z,14.01
2022-10-11T08:04:59.402Z,14.08
2022-10-11T08:05:59.362Z,13.88
2022-10-11T08:06:59.365Z,14.25
2022-10-11T08:07:59.373Z,14.03
2022-10-11T08:08:59.375Z,14.03
2022-10-11T08:09:59.321Z,13.91
2022-10-11T08:10:59.323Z,14.13
2022-10-11T08:11:59.292Z,13.86
2022-10-11T08:13:04.117Z,13.83
2022-10-11T08:14:00.276Z,14.13
2022-10-11T08:14:59.259Z,14.20
2022-10-11T08:15:59.303Z,14.20
2022-10-11T08:16:59.250Z,13.98
2022-10-11T08:17:59.231Z,13.76
2022-10-11T08:18:59.249Z,13.96
2022-10-11T08:19:59.210Z,13.96
2022-10-11T08:20:59.178Z,13.88
2022-10-11T08:21:59.177Z,13.96
2022-10-11T08:22:59.157Z,14.23
2022-10-11T08:23:59.157Z,14.23
2022-10-11T08:24:59.177Z,14.05
2022-10-11T08:25:59.110Z,14.08
2022-10-11T08:26:59.098Z,14.13
2022-10-11T08:27:59.116Z,14.18
2022-10-11T08:28:59.203Z,13.81
2022-10-11T08:29:59.088Z,13.91
2022-10-11T08:30:59.046Z,14.15
2022-10-11T08:31:59.038Z,14.23
2022-10-11T08:32:59.048Z,14.10
2022-10-11T08:33:59.024Z,14.23
2022-10-11T08:34:59.025Z,13.86
2022-10-11T08:35:58.990Z,13.91
2022-10-11T08:36:58.996Z,14.25
2022-10-11T08:37:58.974Z,14.08
2022-10-11T08:38:58.953Z,14.13
2022-10-11T08:39:58.948Z,14.20
2022-10-11T08:40:58.934Z,14.10
2022-10-11T08:41:58.924Z,14.18
2022-10-11T08:42:58.917Z,13.73
2022-10-11T08:43:58.882Z,13.78
2022-10-11T08:45:10.563Z,14.08
2022-10-11T08:45:59.851Z,14.03
2022-10-11T08:47:00.546Z,13.98
2022-10-11T08:47:58.852Z,14.03
2022-10-11T08:48:58.843Z,14.10
2022-10-11T08:49:58.810Z,14.20
2022-10-11T08:50:58.819Z,14.01
2022-10-11T08:51:58.800Z,13.93
2022-10-11T08:52:58.761Z,13.83
2022-10-11T08:54:01.351Z,13.81
2022-10-11T08:54:58.751Z,14.03
2022-10-11T08:55:58.718Z,13.96
2022-10-11T08:56:58.708Z,14.08
2022-10-11T08:57:58.698Z,13.96
2022-10-11T08:58:58.718Z,13.96
2022-10-11T08:59:58.689Z,13.96
2022-10-11T09:00:58.677Z,14.13
2022-10-11T09:01:58.730Z,14.05
2022-10-11T09:03:13.676Z,13.86
2022-10-11T09:03:59.637Z,13.91
2022-10-11T09:04:58.616Z,14.01
2022-10-11T09:05:58.607Z,14.23
2022-10-11T09:07:02.602Z,14.01
2022-10-11T09:07:59.577Z,14.28
2022-10-11T09:08:58.566Z,13.83
2022-10-11T09:09:58.545Z,13.59
2022-10-11T09:10:58.545Z,14.10
2022-10-11T09:11:58.523Z,13.98
2022-10-11T09:12:58.771Z,14.13
2022-10-11T09:13:58.494Z,13.83
2022-10-11T09:14:58.539Z,13.76
2022-10-11T09:15:58.493Z,14.08
2022-10-11T09:16:58.443Z,14.13
2022-10-11T09:17:58.458Z,14.20
2022-10-11T09:18:58.443Z,14.10
2022-10-11T09:19:58.417Z,13.59
2022-10-11T09:20:58.413Z,13.76
2022-10-11T09:21:58.382Z,13.93
2022-10-11T09:22:58.383Z,13.86
2022-10-11T09:23:58.388Z,14.03
2022-10-11T09:24:58.371Z,13.93
2022-10-11T09:25:59.040Z,13.91
2022-10-11T09:26:58.339Z,14.13
2022-10-11T09:28:02.851Z,14.18
2022-10-11T09:29:01.477Z,13.93
2022-10-11T09:29:58.316Z,14.15
2022-10-11T09:30:58.290Z,14.15
2022-10-11T09:31:58.272Z,14.20
2022-10-11T09:32:58.251Z,14.03
2022-10-11T09:33:58.229Z,14.25
2022-10-11T09:34:58.259Z,14.03
2022-10-11T09:35:58.206Z,13.98
2022-10-11T09:36:58.238Z,13.83
2022-10-11T09:37:58.266Z,14.20
2022-10-11T09:39:02.975Z,14.43
2022-10-11T09:39:59.165Z,14.01
2022-10-11T09:40:58.217Z,14.15
2022-10-11T09:41:58.187Z,14.08
2022-10-11T09:42:58.197Z,13.76
2022-10-11T09:43:58.128Z,14.03
2022-10-11T09:44:58.101Z,13.93
2022-10-11T09:45:58.104Z,13.54
2022-10-11T09:46:58.146Z,13.49
2022-10-11T09:47:58.055Z,14.15
2022-10-11T09:48:58.062Z,14.18
2022-10-11T09:49:58.055Z,14.25
2022-10-11T09:50:58.075Z,14.03
2022-10-11T09:51:58.018Z,13.93
2022-10-11T09:52:57.992Z,13.91
2022-10-11T09:53:57.964Z,14.05
2022-10-11T09:54:57.985Z,13.78
2022-10-11T09:55:57.943Z,13.93
2022-10-11T09:56:57.957Z,14.28
2022-10-11T09:57:57.922Z,14.05
2022-10-11T09:58:57.913Z,14.01
2022-10-11T09:59:57.892Z,14.23
2022-10-11T10:00:57.901Z,14.13
2022-10-11T10:01:57.937Z,13.76
2022-10-11T10:02:57.852Z,13.81
2022-10-11T10:03:57.843Z,13.76
2022-10-11T10:04:57.840Z,13.76
2022-10-11T10:05:57.837Z,14.30
2022-10-11T10:06:57.810Z,14.13
2022-10-11T10:08:00.590Z,13.86
2022-10-11T10:08:58.805Z,13.93
2022-10-11T10:09:57.802Z,13.81
2022-10-11T10:10:59.666Z,13.88
2022-10-11T10:11:57.780Z,13.91
2022-10-11T10:12:57.828Z,14.25
2022-10-11T10:13:57.750Z,14.28
2022-10-11T10:14:57.965Z,14.10
2022-10-11T10:15:57.738Z,13.96
2022-10-11T10:16:57.697Z,14.38
2022-10-11T10:17:57.756Z,14.13
2022-10-11T10:18:57.733Z,14.08
2022-10-11T10:19:57.756Z,13.93
2022-10-11T10:20:57.728Z,14.15
2022-10-11T10:21:57.759Z,13.78
2022-10-11T10:22:57.619Z,13.93
2022-10-11T10:23:57.596Z,13.91
2022-10-11T10:24:57.592Z,14.20
2022-10-11T10:25:57.856Z,14.40
2022-10-11T10:26:57.825Z,14.13
2022-10-11T10:27:57.814Z,14.10
2022-10-11T10:28:57.586Z,13.71
2022-10-11T10:29:57.577Z,14.15
2022-10-11T10:30:57.547Z,14.05
2022-10-11T10:32:14.621Z,14.15
2022-10-11T10:32:58.774Z,14.38
2022-10-11T10:33:57.464Z,14.08
2022-10-11T10:34:57.743Z,13.83
2022-10-11T10:35:57.441Z,13.59
2022-10-11T10:36:57.714Z,14.08
2022-10-11T10:37:57.514Z,13.76
2022-10-11T10:38:57.663Z,14.15
2022-10-11T10:39:57.633Z,14.13
2022-10-11T10:40:57.634Z,13.83
2022-10-11T10:41:57.366Z,14.03
2022-10-11T10:42:57.642Z,13.59
2022-10-11T10:43:57.342Z,14.30
2022-10-11T10:44:57.591Z,14.13
2022-10-11T10:45:57.303Z,14.13
2022-10-11T10:46:57.611Z,13.73
2022-10-11T10:47:57.303Z,14.30
2022-10-11T10:49:58.264Z,13.59
2022-10-11T10:50:57.550Z,14.33
2022-10-11T10:51:57.238Z,14.20
2022-10-11T10:52:57.209Z,14.18
2022-10-11T10:53:57.209Z,14.01
2022-10-11T10:54:57.218Z,14.35
2022-10-11T10:55:57.212Z,14.23
2022-10-11T10:56:57.200Z,14.13
2022-10-11T10:57:57.167Z,14.01
2022-10-11T10:58:57.397Z,13.71
2022-10-11T10:59:57.409Z,14.15
2022-10-11T11:00:57.461Z,13.91
2022-10-11T11:01:57.161Z,13.93
2022-10-11T11:02:57.433Z,13.68
2022-10-11T11:03:57.104Z,14.18
2022-10-11T11:04:57.337Z,14.30
2022-10-11T11:05:57.306Z,13.81
2022-10-11T11:06:57.046Z,13.81
2022-10-11T11:07:57.046Z,14.10
2022-10-11T11:08:57.037Z,14.15
2022-10-11T11:09:56.988Z,14.33
2022-10-11T11:10:57.245Z,14.28
2022-10-11T11:11:57.226Z,14.47
2022-10-11T11:12:57.038Z,13.83
2022-10-11T11:13:56.966Z,13.86
2022-10-11T11:14:56.933Z,13.86
2022-10-11T11:15:56.938Z,13.71
2022-10-11T11:16:56.914Z,13.59
2022-10-11T11:17:56.906Z,14.25
2022-10-11T11:18:56.882Z,14.08
2022-10-11T11:19:56.922Z,13.88
2022-10-11T11:20:56.885Z,13.76
2022-10-11T11:21:56.856Z,14.08
2022-10-11T11:22:56.849Z,13.98
2022-10-11T11:23:56.822Z,13.86
2022-10-11T11:24:56.802Z,14.25
2022-10-11T11:25:57.059Z,14.20
2022-10-11T11:26:56.821Z,13.81
2022-10-11T11:27:57.054Z,14.15
2022-10-11T11:28:56.801Z,14.35
2022-10-11T11:29:57.041Z,13.93
2022-10-11T11:30:56.729Z,14.13
2022-10-11T11:31:56.729Z,13.78
2022-10-11T11:32:56.705Z,13.76
2022-10-11T11:33:56.739Z,14.38
2022-10-11T11:34:56.699Z,13.93
2022-10-11T11:35:56.672Z,14.01
2022-10-11T11:36:56.920Z,13.93
2022-10-11T11:38:02.476Z,14.33
2022-10-11T11:38:57.910Z,14.28
2022-10-11T11:39:56.608Z,14.03
2022-10-11T11:40:56.838Z,14.33
2022-10-11T11:41:56.607Z,14.15
2022-10-11T11:42:56.557Z,13.86
2022-10-11T11:43:56.558Z,14.33
2022-10-11T11:44:56.645Z,14.05
2022-10-11T11:45:56.529Z,14.03
2022-10-11T11:46:56.557Z,13.66
2022-10-11T11:47:56.775Z,13.66
2022-10-11T11:48:56.745Z,14.25
2022-10-11T11:49:56.747Z,13.91
2022-10-11T11:50:56.708Z,14.30
2022-10-11T11:51:56.459Z,13.78
2022-10-11T11:52:56.689Z,14.15
2022-10-11T11:53:56.425Z,14.03
2022-10-11T11:55:00.078Z,14.23
2022-10-11T11:55:57.413Z,14.18
2022-10-11T11:56:56.393Z,14.30
2022-10-11T11:57:56.364Z,14.30
2022-10-11T11:58:56.614Z,13.56
2022-10-11T11:59:56.344Z,14.05
2022-10-11T12:00:56.604Z,13.93
2022-10-11T12:01:56.610Z,14.05
2022-10-11T12:02:56.567Z,14.20
2022-10-11T12:03:56.592Z,13.98
2022-10-11T12:04:56.332Z,13.96
2022-10-11T12:05:56.272Z,14.23
2022-10-11T12:07:14.930Z,14.15
2022-10-11T12:07:57.516Z,13.98
2022-10-11T12:08:56.232Z,14.08
2022-10-11T12:09:56.249Z,13.59
2022-10-11T12:10:56.226Z,14.13
2022-10-11T12:11:56.190Z,14.08
2022-10-11T12:12:56.220Z,14.13
2022-10-11T12:13:56.239Z,14.05
2022-10-11T12:14:56.180Z,14.20
2022-10-11T12:15:56.148Z,13.83
2022-10-11T12:16:56.159Z,13.98
2022-10-11T12:17:56.411Z,13.81
2022-10-11T12:18:56.393Z,14.33
2022-10-11T12:19:56.190Z,14.33
2022-10-11T12:20:56.079Z,14.33
2022-10-11T12:21:56.078Z,14.03
2022-10-11T12:22:56.050Z,13.96
2022-10-11T12:23:56.348Z,14.18
2022-10-11T12:24:56.018Z,14.15
2022-10-11T12:25:56.057Z,13.78
2022-10-11T12:26:56.258Z,14.33
2022-10-11T12:27:56.254Z,14.10
2022-10-11T12:28:56.267Z,14.18
2022-10-11T12:29:56.218Z,14.20
2022-10-11T12:30:55.966Z,14.20
2022-10-11T12:31:55.970Z,14.23
2022-10-11T12:32:55.948Z,14.33
2022-10-11T12:33:55.912Z,14.30
2022-10-11T12:34:56.166Z,14.05
2022-10-11T12:35:56.174Z,14.35
2022-10-11T12:36:55.886Z,14.38
2022-10-11T12:37:56.143Z,14.01
2022-10-11T12:38:55.845Z,14.08
2022-10-11T12:39:55.883Z,13.71
2022-10-11T12:40:55.814Z,13.93
2022-10-11T12:41:55.815Z,14.23
2022-10-11T12:42:56.074Z,14.35
2022-10-11T12:43:56.053Z,14.13
2022-10-11T12:44:55.762Z,14.23
2022-10-11T12:45:56.021Z,14.15
2022-10-11T12:46:55.761Z,14.20
2022-10-11T12:47:55.991Z,13.96
2022-10-11T12:48:55.732Z,14.30
2022-10-11T12:49:56.000Z,14.01
2022-10-11T12:51:00.773Z,13.93
2022-10-11T12:51:56.940Z,14.03
2022-10-11T12:52:55.670Z,14.23
2022-10-11T12:54:14.697Z,14.05
2022-10-11T12:54:56.660Z,14.10
2022-10-11T12:55:55.909Z,14.28
2022-10-11T12:56:55.659Z,13.86
2022-10-11T12:57:55.634Z,14.25
2022-10-11T12:58:55.588Z,13.93
2022-10-11T12:59:55.579Z,14.25
2022-10-11T13:00:55.612Z,13.76
2022-10-11T13:01:55.848Z,14.25
2022-10-11T13:02:55.547Z,13.73
2022-10-11T13:03:55.517Z,14.01